Time;durP1;ratioP1;P1;durP2;ratioP2;P2;SDS_P1;SDS_P2;PMS_P1;PMS_P2;Temp;Humidity;BMP_temperature;BMP_pressure;BME280_temperature;BME280_humidity;BME280_pressure;Samples;Min_cycle;Max_cycle;Signal;HPM_P1;HPM_P2
2023/01/12 00:01:44;;;;;;;39.47;6.22;;;10.00;99.90;;;;;;5054594;28;20072;-56
2023/01/12 00:04:11;;;;;;;32.53;6.18;;;10.00;99.90;;;;;;5054635;28;20123;-53
2023/01/12 00:06:38;;;;;;;38.97;6.88;;;10.00;99.90;;;;;;5055019;28;20041;-53
2023/01/12 00:09:07;;;;;;;33.20;5.82;;;10.00;99.90;;;;;;5051127;28;20131;-55
2023/01/12 00:11:34;;;;;;;33.40;5.70;;;10.00;99.90;;;;;;5055821;28;20048;-57
2023/01/12 00:14:01;;;;;;;38.97;6.93;;;10.00;99.90;;;;;;5055808;28;20083;-53
2023/01/12 00:16:34;;;;;;;28.77;5.70;;;10.00;99.90;;;;;;5054948;28;20041;-54
2023/01/12 00:19:00;;;;;;;35.28;6.30;;;10.00;99.90;;;;;;5055509;28;20045;-52
2023/01/12 00:21:27;;;;;;;26.30;5.38;;;10.00;99.90;;;;;;5054804;28;20433;-55
2023/01/12 00:23:54;;;;;;;32.90;6.20;;;10.10;99.90;;;;;;5055459;28;20525;-53
2023/01/12 00:26:20;;;;;;;29.15;5.13;;;10.10;99.90;;;;;;5053465;28;20056;-53
2023/01/12 00:28:47;;;;;;;21.88;4.80;;;10.00;99.90;;;;;;5054802;28;20041;-57
2023/01/12 00:31:14;;;;;;;22.88;4.32;;;10.00;99.90;;;;;;5055265;28;20049;-56
2023/01/12 00:33:41;;;;;;;28.23;4.45;;;10.00;99.90;;;;;;5054752;28;20468;-52
2023/01/12 00:36:07;;;;;;;21.05;5.32;;;10.00;99.90;;;;;;5052976;28;20106;-54
2023/01/12 00:38:35;;;;;;;23.20;4.28;;;10.10;99.90;;;;;;5054592;28;20091;-55
2023/01/12 00:41:02;;;;;;;21.95;3.70;;;10.00;99.90;;;;;;5055049;28;20037;-50
2023/01/12 00:46:14;;;;;;;18.38;4.47;;;10.10;99.90;;;;;;5054987;28;20123;-52
2023/01/12 00:48:40;;;;;;;27.30;3.78;;;10.10;99.90;;;;;;5055054;28;20043;-54
2023/01/12 00:51:07;;;;;;;20.00;3.72;;;10.10;99.90;;;;;;5055057;28;20041;-56
2023/01/12 00:53:34;;;;;;;16.05;3.78;;;10.10;99.90;;;;;;5055324;28;20040;-52
2023/01/12 00:56:01;;;;;;;31.95;4.72;;;10.20;99.90;;;;;;5053625;28;20045;-51
2023/01/12 00:58:27;;;;;;;25.13;4.88;;;10.20;99.90;;;;;;5054873;28;20063;-51
2023/01/12 01:00:54;;;;;;;22.77;5.00;;;10.20;99.90;;;;;;5054521;28;20049;-53
2023/01/12 01:03:21;;;;;;;23.80;4.25;;;10.20;99.90;;;;;;5054761;28;20037;-54
2023/01/12 01:05:48;;;;;;;32.30;5.05;;;10.20;99.90;;;;;;5054725;28;20055;-54
2023/01/12 01:08:15;;;;;;;27.08;4.40;;;10.20;99.90;;;;;;5054533;28;20115;-55
2023/01/12 01:10:41;;;;;;;27.55;4.55;;;10.20;99.90;;;;;;5054624;28;20056;-55
2023/01/12 01:13:08;;;;;;;27.20;4.97;;;10.30;99.90;;;;;;5054551;28;20079;-52
2023/01/12 01:15:35;;;;;;;25.42;4.65;;;10.30;99.90;;;;;;5054601;28;20091;-53
2023/01/12 01:18:02;;;;;;;25.25;4.40;;;10.30;99.90;;;;;;5054423;28;20041;-50
2023/01/12 01:20:32;;;;;;;25.20;4.97;;;10.30;99.90;;;;;;5053941;28;20084;-53
2023/01/12 01:22:59;;;;;;;28.90;4.47;;;10.30;99.90;;;;;;5054575;28;20157;-56
2023/01/12 01:25:25;;;;;;;26.05;4.53;;;10.30;99.90;;;;;;5053069;28;20079;-52
2023/01/12 01:27:52;;;;;;;31.17;4.78;;;10.30;99.90;;;;;;5054007;28;20045;-52
2023/01/12 01:30:19;;;;;;;23.70;4.75;;;10.30;99.90;;;;;;5053943;28;20114;-50
2023/01/12 01:32:46;;;;;;;19.25;4.25;;;10.30;99.90;;;;;;5053747;28;20060;-54
2023/01/12 01:35:12;;;;;;;24.38;5.15;;;10.30;99.90;;;;;;5054340;28;20079;-53
2023/01/12 01:37:39;;;;;;;22.05;3.70;;;10.30;99.90;;;;;;5053848;28;20048;-54
2023/01/12 01:40:06;;;;;;;20.83;4.32;;;10.30;99.90;;;;;;5052456;28;20036;-50
2023/01/12 01:42:33;;;;;;;22.30;4.68;;;10.30;99.90;;;;;;5052358;28;20542;-55
2023/01/12 01:44:59;;;;;;;22.10;4.55;;;10.30;99.90;;;;;;5053733;28;20059;-58
2023/01/12 01:47:26;;;;;;;19.88;3.97;;;10.40;99.90;;;;;;5053994;28;20114;-52
2023/01/12 01:49:53;;;;;;;24.85;3.97;;;10.40;99.90;;;;;;5052987;28;20533;-55
2023/01/12 01:52:19;;;;;;;16.63;3.85;;;10.40;99.90;;;;;;5053826;28;20103;-58
2023/01/12 01:54:46;;;;;;;22.38;3.90;;;10.40;99.90;;;;;;5052502;28;20045;-55
2023/01/12 01:57:13;;;;;;;19.23;3.78;;;10.40;99.90;;;;;;5052531;28;20072;-54
2023/01/12 01:59:39;;;;;;;19.73;4.30;;;10.40;99.90;;;;;;5052346;28;20045;-55
2023/01/12 02:02:06;;;;;;;15.68;3.03;;;10.40;99.90;;;;;;5053192;28;20041;-52
2023/01/12 02:04:33;;;;;;;18.15;3.53;;;10.50;99.90;;;;;;5053211;28;20091;-56
2023/01/12 02:07:00;;;;;;;14.27;3.25;;;10.50;99.90;;;;;;5052888;28;20090;-54
2023/01/12 02:09:27;;;;;;;18.70;2.90;;;10.50;99.90;;;;;;5053036;28;20057;-52
2023/01/12 02:17:24;;;;;;;12.48;2.95;;;10.50;99.90;;;;;;5053277;28;20099;-52
2023/01/12 02:19:50;;;;;;;17.30;3.08;;;10.60;99.90;;;;;;5053379;28;20061;-49
2023/01/12 02:22:17;;;;;;;14.90;3.25;;;10.70;99.90;;;;;;5053622;28;20033;-51
2023/01/12 02:24:44;;;;;;;10.68;2.53;;;10.60;99.90;;;;;;5053541;28;20094;-51
2023/01/12 02:27:11;;;;;;;13.40;2.33;;;10.60;99.90;;;;;;5053505;28;20094;-50
2023/01/12 02:29:37;;;;;;;12.73;2.38;;;10.70;99.90;;;;;;5053059;28;20037;-51
2023/01/12 02:32:04;;;;;;;10.80;3.05;;;10.70;99.90;;;;;;5053389;28;20041;-57
2023/01/12 02:34:31;;;;;;;12.80;3.08;;;10.70;99.90;;;;;;5053263;28;20049;-54
2023/01/12 02:36:58;;;;;;;10.68;2.28;;;10.80;99.90;;;;;;5052979;28;20045;-55
2023/01/12 02:39:24;;;;;;;11.25;2.38;;;10.80;99.90;;;;;;5053366;28;20099;-51
2023/01/12 02:44:36;;;;;;;9.85;2.38;;;10.90;99.90;;;;;;5053588;28;20068;-57
2023/01/12 02:47:03;;;;;;;12.60;2.40;;;10.90;99.90;;;;;;5052534;28;20095;-55
2023/01/12 02:49:30;;;;;;;9.50;2.03;;;10.90;99.90;;;;;;5053273;28;20068;-51
2023/01/12 02:51:57;;;;;;;11.52;2.40;;;10.90;99.90;;;;;;5053145;28;20103;-56
2023/01/12 02:54:23;;;;;;;10.55;2.30;;;11.00;99.90;;;;;;5052975;28;20095;-52
2023/01/12 02:56:50;;;;;;;11.05;2.63;;;11.10;99.90;;;;;;5053227;28;20082;-54
2023/01/12 02:59:17;;;;;;;12.25;3.08;;;11.10;99.90;;;;;;5052945;28;20103;-52
2023/01/12 03:01:44;;;;;;;9.23;2.25;;;11.10;99.90;;;;;;5053138;28;20484;-57
2023/01/12 03:04:12;;;;;;;12.43;3.10;;;11.20;99.90;;;;;;5052811;28;20399;-52
2023/01/12 03:06:39;;;;;;;12.70;2.17;;;11.20;99.90;;;;;;5053645;28;20052;-57
2023/01/12 03:09:06;;;;;;;8.70;2.00;;;11.20;99.90;;;;;;5056766;28;20064;-56
2023/01/12 03:11:33;;;;;;;13.88;2.33;;;11.20;99.90;;;;;;5057046;28;20045;-51
2023/01/12 03:13:59;;;;;;;11.55;2.50;;;11.20;99.90;;;;;;5057081;28;20048;-47
2023/01/12 03:16:26;;;;;;;10.90;2.13;;;11.20;99.90;;;;;;5056418;28;20044;-51
2023/01/12 03:18:53;;;;;;;8.85;1.90;;;11.20;99.90;;;;;;5056993;28;20075;-49
2023/01/12 03:21:19;;;;;;;9.32;2.25;;;11.20;99.90;;;;;;5056749;28;20135;-49
2023/01/12 03:23:46;;;;;;;14.48;2.85;;;11.20;99.90;;;;;;5056806;28;20041;-55
2023/01/12 03:26:13;;;;;;;11.00;2.50;;;11.20;99.90;;;;;;5055244;28;20045;-52
2023/01/12 03:28:40;;;;;;;8.02;1.95;;;11.20;99.90;;;;;;5056350;28;20183;-53
2023/01/12 03:31:09;;;;;;;9.18;2.13;;;11.20;99.90;;;;;;5056505;28;20041;-51
2023/01/12 03:33:36;;;;;;;12.82;2.67;;;11.20;99.90;;;;;;5056483;28;20102;-50
2023/01/12 03:36:03;;;;;;;6.38;1.73;;;11.30;99.90;;;;;;5056359;28;20041;-48
2023/01/12 03:38:30;;;;;;;10.05;2.10;;;11.30;99.90;;;;;;5056412;28;20076;-54
2023/01/12 03:40:57;;;;;;;7.90;1.48;;;11.30;99.90;;;;;;5056350;28;20048;-54
2023/01/12 03:43:23;;;;;;;8.65;2.03;;;11.30;99.90;;;;;;5056443;28;20064;-48
2023/01/12 03:45:50;;;;;;;6.65;1.55;;;11.30;99.90;;;;;;5056090;28;20091;-55
2023/01/12 03:48:17;;;;;;;9.30;1.90;;;11.30;99.90;;;;;;5056492;28;20041;-47
2023/01/12 03:50:43;;;;;;;7.10;1.60;;;11.40;99.90;;;;;;5056305;28;20033;-52
2023/01/12 03:53:10;;;;;;;10.38;1.88;;;11.40;99.90;;;;;;5055901;28;20045;-55
2023/01/12 03:55:37;;;;;;;5.63;1.20;;;11.40;99.90;;;;;;5056249;28;20525;-52
2023/01/12 03:58:04;;;;;;;7.28;1.58;;;11.40;99.90;;;;;;5056059;28;20037;-53
2023/01/12 04:00:30;;;;;;;11.23;1.63;;;11.40;99.90;;;;;;5055874;28;20554;-54
2023/01/12 04:02:57;;;;;;;7.22;1.38;;;11.40;99.90;;;;;;5056185;28;20427;-54
2023/01/12 04:05:24;;;;;;;7.63;1.73;;;11.50;99.90;;;;;;5056022;28;20029;-57
2023/01/12 04:07:51;;;;;;;7.43;1.70;;;11.50;99.90;;;;;;5055709;28;20053;-56
2023/01/12 04:10:17;;;;;;;11.38;1.70;;;11.50;99.90;;;;;;5055582;28;20129;-50
2023/01/12 04:12:44;;;;;;;18.80;3.35;;;11.50;99.90;;;;;;5055286;28;20041;-49
2023/01/12 04:15:11;;;;;;;5.82;1.35;;;11.50;99.90;;;;;;5055363;28;20098;-54
2023/01/12 04:17:37;;;;;;;7.60;1.40;;;11.60;99.90;;;;;;5055380;28;20079;-46
2023/01/12 04:20:04;;;;;;;7.63;1.60;;;11.60;99.90;;;;;;5055824;28;20041;-51
2023/01/12 04:22:43;;;;;;;5.28;1.38;;;11.60;99.90;;;;;;5055537;28;20052;-53
2023/01/12 04:25:10;;;;;;;7.32;1.38;;;11.60;99.90;;;;;;5054998;28;20052;-55
2023/01/12 04:27:37;;;;;;;6.75;1.42;;;11.70;99.90;;;;;;5055580;28;20073;-49
2023/01/12 04:30:04;;;;;;;10.10;2.08;;;11.70;99.90;;;;;;5055577;28;20163;-53
2023/01/12 04:32:30;;;;;;;9.00;1.60;;;11.70;99.90;;;;;;5055521;28;20041;-49
2023/01/12 04:34:57;;;;;;;7.32;1.15;;;11.70;99.90;;;;;;5055403;28;20041;-52
2023/01/12 04:37:24;;;;;;;6.57;1.55;;;11.70;99.90;;;;;;5054747;28;20480;-52
2023/01/12 04:39:51;;;;;;;6.63;1.33;;;11.70;99.90;;;;;;5055546;28;20045;-51
2023/01/12 04:45:03;;;;;;;6.85;1.77;;;11.70;99.90;;;;;;5055177;28;20103;-50
2023/01/12 04:47:30;;;;;;;5.03;0.95;;;11.60;99.90;;;;;;5054887;28;20083;-52
2023/01/12 04:49:56;;;;;;;7.38;1.48;;;11.60;99.90;;;;;;5053690;28;20091;-50
2023/01/12 04:52:23;;;;;;;7.53;1.35;;;11.60;99.90;;;;;;5054731;28;20044;-51
2023/01/12 04:54:50;;;;;;;6.22;1.10;;;11.70;99.90;;;;;;5054884;28;20041;-48
2023/01/12 04:57:16;;;;;;;5.35;1.33;;;11.70;99.90;;;;;;5054499;28;20464;-49
2023/01/12 04:59:43;;;;;;;5.85;1.38;;;11.70;99.90;;;;;;5054558;28;20488;-49
2023/01/12 05:02:10;;;;;;;5.50;1.30;;;11.70;99.90;;;;;;5053367;28;20053;-49
2023/01/12 05:04:37;;;;;;;3.78;1.10;;;11.70;99.90;;;;;;5054363;28;20388;-49
2023/01/12 05:07:04;;;;;;;5.65;1.10;;;11.70;99.90;;;;;;5054457;28;20041;-55
2023/01/12 05:12:16;;;;;;;6.72;1.30;;;11.70;99.90;;;;;;5054521;28;20044;-53
2023/01/12 05:14:43;;;;;;;4.28;1.02;;;11.70;99.90;;;;;;5054616;28;20080;-52
2023/01/12 05:17:09;;;;;;;6.07;1.25;;;11.70;99.90;;;;;;5054062;28;20063;-55
2023/01/12 05:19:36;;;;;;;6.53;1.08;;;11.70;99.90;;;;;;5054495;28;20033;-53
2023/01/12 05:22:03;;;;;;;4.22;0.80;;;11.80;99.90;;;;;;5054145;28;20110;-56
2023/01/12 05:24:30;;;;;;;4.18;1.30;;;11.80;99.90;;;;;;5054687;28;20068;-56
2023/01/12 05:26:56;;;;;;;5.30;1.20;;;11.80;99.90;;;;;;5054364;28;20086;-49
2023/01/12 05:29:23;;;;;;;8.38;1.58;;;11.80;99.90;;;;;;5053702;28;20041;-55
2023/01/12 05:31:50;;;;;;;8.32;1.40;;;11.80;99.90;;;;;;5054158;28;20071;-53
2023/01/12 05:34:18;;;;;;;4.22;1.20;;;11.80;99.90;;;;;;5054182;28;20447;-56
2023/01/12 05:36:45;;;;;;;6.43;1.40;;;11.80;99.90;;;;;;5054083;28;20077;-49
2023/01/12 05:39:12;;;;;;;5.43;0.90;;;11.80;99.90;;;;;;5054820;28;20072;-54
2023/01/12 05:43:49;;;;;;;3.80;1.00;;;11.80;99.90;;;;;;5054384;28;20044;-54
2023/01/12 05:44:25;;;;;;;5.00;1.50;;;11.80;99.90;;;;;;5054069;28;20376;-54
2023/01/12 05:46:52;;;;;;;3.45;1.00;;;11.80;99.90;;;;;;5054471;28;20037;-55
2023/01/12 05:49:18;;;;;;;5.93;1.17;;;11.90;99.90;;;;;;5054345;28;20045;-51
2023/01/12 05:51:45;;;;;;;3.72;1.05;;;11.90;99.90;;;;;;5054186;28;20098;-57
2023/01/12 05:54:12;;;;;;;5.50;1.40;;;11.90;99.90;;;;;;5054010;28;20037;-58
2023/01/12 05:56:39;;;;;;;5.55;1.17;;;11.90;99.90;;;;;;5053480;28;20033;-54
2023/01/12 05:59:06;;;;;;;6.47;1.40;;;11.90;99.90;;;;;;5053848;28;20450;-55
2023/01/12 06:01:32;;;;;;;5.22;1.50;;;11.90;99.90;;;;;;5054201;28;20037;-54
2023/01/12 06:03:59;;;;;;;4.63;1.50;;;11.90;99.90;;;;;;5054121;28;20041;-52
2023/01/12 06:06:26;;;;;;;3.63;1.00;;;11.90;99.90;;;;;;5053972;28;20086;-54
2023/01/12 06:08:53;;;;;;;6.28;1.35;;;11.90;99.90;;;;;;5052978;28;20092;-55
2023/01/12 06:14:05;;;;;;;4.00;1.08;;;11.90;99.90;;;;;;5053738;28;20499;-54
2023/01/12 06:16:32;;;;;;;3.42;1.00;;;11.90;99.90;;;;;;5053539;28;20049;-50
2023/01/12 06:18:59;;;;;;;4.40;1.00;;;11.90;99.90;;;;;;5053312;28;20071;-54
2023/01/12 06:21:25;;;;;;;4.10;1.10;;;11.90;99.90;;;;;;5053852;28;20415;-56
2023/01/12 06:23:52;;;;;;;4.28;1.25;;;11.90;99.90;;;;;;5053185;28;20040;-55
2023/01/12 06:26:19;;;;;;;7.10;1.45;;;11.90;99.90;;;;;;5052077;28;20484;-54
2023/01/12 06:28:46;;;;;;;5.57;1.13;;;11.90;99.90;;;;;;5053270;28;20041;-53
2023/01/12 06:31:12;;;;;;;5.60;1.20;;;11.90;99.90;;;;;;5051827;28;20049;-54
2023/01/12 06:33:39;;;;;;;3.65;0.82;;;11.90;99.90;;;;;;5053297;28;20041;-50
2023/01/12 06:36:06;;;;;;;4.35;1.00;;;11.90;99.90;;;;;;5053294;28;20048;-55
2023/01/12 06:38:32;;;;;;;4.55;1.15;;;11.90;99.90;;;;;;5053403;28;20087;-50
2023/01/12 06:40:59;;;;;;;4.55;1.00;;;11.90;99.90;;;;;;5055215;28;20037;-50
2023/01/12 06:43:26;;;;;;;4.53;1.10;;;11.90;99.90;;;;;;5057121;28;20041;-54
2023/01/12 06:45:53;;;;;;;5.53;1.00;;;11.90;99.90;;;;;;5057770;28;20048;-55
2023/01/12 06:48:22;;;;;;;4.60;1.45;;;11.90;99.90;;;;;;5057199;28;20045;-49
2023/01/12 06:50:49;;;;;;;3.53;0.98;;;11.90;99.90;;;;;;5057569;28;20468;-53
2023/01/12 06:53:15;;;;;;;4.85;1.00;;;11.90;99.90;;;;;;5057299;28;20120;-53
2023/01/12 06:55:42;;;;;;;4.45;0.90;;;12.00;99.90;;;;;;5057052;28;20422;-51
2023/01/12 06:58:09;;;;;;;5.70;1.02;;;12.00;99.90;;;;;;5057093;28;20045;-49
2023/01/12 07:00:36;;;;;;;4.88;1.02;;;12.00;99.90;;;;;;5057163;28;20048;-51
2023/01/12 07:03:02;;;;;;;5.70;1.10;;;11.90;99.90;;;;;;5057128;28;20041;-53
2023/01/12 07:05:29;;;;;;;10.88;1.23;;;11.90;99.90;;;;;;5057054;28;20083;-56
2023/01/12 07:07:56;;;;;;;5.82;0.98;;;11.90;99.90;;;;;;5056908;28;20045;-51
2023/01/12 07:10:23;;;;;;;3.85;1.35;;;11.90;99.90;;;;;;5057113;28;20074;-55
2023/01/12 07:12:49;;;;;;;4.72;1.23;;;11.90;99.90;;;;;;5057106;28;20103;-55
2023/01/12 07:15:16;;;;;;;5.65;1.15;;;11.90;99.90;;;;;;5057013;28;20106;-53
2023/01/12 07:17:43;;;;;;;5.88;1.33;;;11.90;99.90;;;;;;5056685;28;20049;-56
2023/01/12 07:20:10;;;;;;;4.78;1.20;;;11.90;99.90;;;;;;5056716;28;20049;-57
2023/01/12 07:22:38;;;;;;;6.40;1.35;;;11.90;99.90;;;;;;5056731;28;20055;-48
2023/01/12 07:25:04;;;;;;;6.13;1.20;;;11.90;99.90;;;;;;5056109;28;20076;-56
2023/01/12 07:27:31;;;;;;;4.80;1.23;;;11.90;99.90;;;;;;5056287;28;20048;-50
2023/01/12 07:29:58;;;;;;;6.35;1.20;;;11.90;99.90;;;;;;5056353;28;20047;-50
2023/01/12 07:32:26;;;;;;;7.75;1.70;;;11.90;99.90;;;;;;5057179;28;20122;-50
2023/01/12 07:34:53;;;;;;;7.18;1.70;;;11.90;99.90;;;;;;5056698;28;20045;-48
2023/01/12 07:37:19;;;;;;;6.88;1.45;;;11.90;99.90;;;;;;5056270;28;20102;-48
2023/01/12 07:39:46;;;;;;;8.25;1.50;;;11.90;99.90;;;;;;5056583;28;20484;-49
2023/01/12 07:42:22;;;;;;;6.30;1.55;;;11.90;99.90;;;;;;5056378;28;20037;-46
2023/01/12 07:44:50;;;;;;;8.05;1.70;;;11.90;99.90;;;;;;5056276;28;20407;-50
2023/01/12 07:47:16;;;;;;;4.85;1.10;;;11.90;99.90;;;;;;5056104;28;20091;-52
2023/01/12 07:49:43;;;;;;;7.22;1.73;;;11.90;99.90;;;;;;5056096;28;20045;-53
2023/01/12 07:52:11;;;;;;;7.13;1.65;;;11.90;99.90;;;;;;5055135;28;20045;-49
2023/01/12 07:54:37;;;;;;;6.55;1.63;;;11.90;99.90;;;;;;5056478;28;20064;-54
2023/01/12 07:57:04;;;;;;;6.78;1.80;;;11.90;99.90;;;;;;5056045;28;20040;-55
2023/01/12 07:59:31;;;;;;;9.40;1.95;;;11.90;99.90;;;;;;5054164;28;20103;-54
2023/01/12 08:01:58;;;;;;;8.27;1.80;;;12.00;99.90;;;;;;5053585;28;20037;-48
2023/01/12 08:04:24;;;;;;;11.65;2.40;;;11.90;99.90;;;;;;5054794;28;20045;-54
2023/01/12 08:06:51;;;;;;;8.23;1.83;;;11.90;99.90;;;;;;5055505;28;20476;-52
2023/01/12 08:09:18;;;;;;;12.45;3.17;;;11.90;99.90;;;;;;5054879;28;20052;-51
2023/01/12 08:11:45;;;;;;;7.38;1.80;;;11.90;99.90;;;;;;5054694;28;20112;-52
2023/01/12 08:14:11;;;;;;;8.55;2.00;;;11.90;99.90;;;;;;5054336;28;20049;-52
2023/01/12 08:16:39;;;;;;;10.45;2.47;;;11.90;99.90;;;;;;5052628;28;20049;-55
2023/01/12 08:19:06;;;;;;;11.20;2.72;;;11.80;99.90;;;;;;5053872;28;20036;-55
2023/01/12 08:21:33;;;;;;;10.52;2.08;;;11.80;99.90;;;;;;5054004;28;20040;-53
2023/01/12 08:24:00;;;;;;;9.57;2.20;;;11.80;99.90;;;;;;5054027;28;20040;-52
2023/01/12 08:26:27;;;;;;;12.57;2.30;;;11.80;99.90;;;;;;5054761;28;20443;-54
2023/01/12 08:28:53;;;;;;;10.00;2.30;;;11.80;99.90;;;;;;5055237;28;20373;-56
2023/01/12 08:31:20;;;;;;;11.38;2.20;;;11.70;99.90;;;;;;5055275;28;20083;-48
2023/01/12 08:33:47;;;;;;;11.70;2.38;;;11.70;99.90;;;;;;5054152;28;20045;-55
2023/01/12 08:36:14;;;;;;;11.65;2.33;;;11.70;99.90;;;;;;5055081;28;20080;-50
2023/01/12 08:38:40;;;;;;;9.40;2.17;;;11.70;99.90;;;;;;5055304;28;20063;-48
2023/01/12 08:44:02;;;;;;;10.98;2.30;;;11.70;99.90;;;;;;5055353;28;20445;-50
2023/01/12 08:46:29;;;;;;;10.02;2.00;;;11.70;99.90;;;;;;5055068;28;20052;-50
2023/01/12 08:48:56;;;;;;;10.25;2.20;;;11.60;99.90;;;;;;5054843;28;20045;-51
2023/01/12 08:51:22;;;;;;;11.70;2.30;;;11.60;99.90;;;;;;5055455;28;20480;-51
2023/01/12 08:53:49;;;;;;;11.45;2.40;;;11.60;99.90;;;;;;5054882;28;20045;-50
2023/01/12 08:56:16;;;;;;;14.48;2.75;;;11.60;99.90;;;;;;5053314;28;20107;-55
2023/01/12 08:58:43;;;;;;;11.40;2.40;;;11.60;99.90;;;;;;5053513;28;20079;-51
2023/01/12 09:01:09;;;;;;;9.50;2.10;;;11.60;99.90;;;;;;5055039;28;20431;-52
2023/01/12 09:03:36;;;;;;;11.27;2.50;;;11.60;99.90;;;;;;5037210;28;20117;-53
2023/01/12 09:06:03;;;;;;;13.82;2.58;;;11.60;99.90;;;;;;5054209;28;20488;-53
2023/01/12 09:08:30;;;;;;;11.80;2.60;;;11.60;99.90;;;;;;5053388;28;20080;-53
2023/01/12 09:10:56;;;;;;;14.27;2.65;;;11.60;99.90;;;;;;5054752;28;20044;-55
2023/01/12 09:13:23;;;;;;;12.63;2.58;;;11.60;99.90;;;;;;5054809;28;20077;-53
2023/01/12 09:15:50;;;;;;;12.68;3.50;;;11.60;99.90;;;;;;5054457;28;20049;-51
2023/01/12 09:18:36;;;;;;;13.30;2.72;;;11.60;99.90;;;;;;5054738;28;20048;-51
2023/01/12 09:21:03;;;;;;;17.60;2.85;;;11.60;99.90;;;;;;5054689;28;20033;-53
2023/01/12 09:23:30;;;;;;;12.18;2.88;;;11.70;99.90;;;;;;5054543;28;20037;-54
2023/01/12 09:25:56;;;;;;;13.77;2.58;;;11.70;99.90;;;;;;5054449;28;20056;-52
2023/01/12 09:28:23;;;;;;;13.68;2.78;;;11.70;99.90;;;;;;5054248;28;20048;-55
2023/01/12 09:30:50;;;;;;;10.45;2.28;;;11.70;99.90;;;;;;5054010;28;20045;-48
2023/01/12 09:33:17;;;;;;;10.35;2.33;;;11.70;99.90;;;;;;5054246;28;20048;-55
2023/01/12 09:35:44;;;;;;;11.07;2.00;;;11.80;99.90;;;;;;5052746;28;20048;-57
2023/01/12 09:38:11;;;;;;;13.70;2.20;;;11.80;99.90;;;;;;5054244;28;20052;-50
2023/01/12 09:40:38;;;;;;;9.98;2.38;;;11.80;99.90;;;;;;5054190;28;20428;-56
2023/01/12 09:48:52;;;;;;;9.80;2.03;;;11.90;99.90;;;;;;5051954;28;20055;-53
2023/01/12 09:51:19;;;;;;;8.38;2.50;;;11.90;99.90;;;;;;5048609;28;20469;-51
2023/01/12 09:53:46;;;;;;;7.22;1.73;;;11.90;99.90;;;;;;5053843;28;20041;-49
2023/01/12 09:56:13;;;;;;;8.55;2.45;;;12.00;99.90;;;;;;5052174;28;20106;-52
2023/01/12 09:58:39;;;;;;;5.82;1.55;;;12.00;99.90;;;;;;5053711;28;20041;-49
2023/01/12 10:01:06;;;;;;;5.95;1.48;;;12.00;99.90;;;;;;5053928;28;20044;-54
2023/01/12 10:03:37;;;;;;;9.60;1.52;;;12.00;99.90;;;;;;5053795;28;20427;-54
2023/01/12 10:06:04;;;;;;;7.07;2.05;;;12.00;99.90;;;;;;5053876;28;20041;-51
2023/01/12 10:08:31;;;;;;;4.70;1.20;;;12.00;99.90;;;;;;5053409;28;20041;-49
2023/01/12 10:10:58;;;;;;;5.43;1.30;;;12.10;99.90;;;;;;5053897;28;20033;-52
2023/01/12 10:13:24;;;;;;;5.93;1.40;;;12.10;99.90;;;;;;5053797;28;20045;-50
2023/01/12 10:15:51;;;;;;;6.50;1.42;;;12.10;99.90;;;;;;5053095;28;20086;-52
2023/01/12 10:18:18;;;;;;;6.97;1.73;;;12.10;99.90;;;;;;5052569;28;20041;-54
2023/01/12 10:20:45;;;;;;;5.65;1.55;;;12.20;99.90;;;;;;5053670;28;20037;-47
2023/01/12 10:23:13;;;;;;;6.40;1.75;;;12.20;99.90;;;;;;5053663;28;20041;-51
2023/01/12 10:25:40;;;;;;;6.07;1.35;;;12.20;99.90;;;;;;5053883;28;20045;-48
2023/01/12 10:28:06;;;;;;;4.13;1.17;;;12.20;99.90;;;;;;5053535;28;20080;-48
2023/01/12 10:30:33;;;;;;;7.82;1.77;;;12.30;99.90;;;;;;5053523;28;20099;-51
2023/01/12 10:33:00;;;;;;;5.70;1.52;;;12.30;99.90;;;;;;5053226;28;20044;-52
2023/01/12 10:35:27;;;;;;;7.28;1.58;;;12.30;99.90;;;;;;5053984;28;20037;-47
2023/01/12 10:37:54;;;;;;;5.75;1.10;;;12.40;99.90;;;;;;5053535;28;20045;-53
2023/01/12 10:40:21;;;;;;;4.90;1.20;;;12.40;99.90;;;;;;5053511;28;20041;-55
2023/01/12 10:45:42;;;;;;;5.30;1.33;;;12.40;99.90;;;;;;5053595;28;20535;-55
2023/01/12 10:48:09;;;;;;;5.22;1.33;;;12.40;99.90;;;;;;5053409;28;20075;-54
2023/01/12 10:50:36;;;;;;;6.25;1.23;;;12.40;99.90;;;;;;5053454;28;20534;-57
2023/01/12 10:53:02;;;;;;;4.32;1.10;;;12.50;99.90;;;;;;5053309;28;20063;-56
2023/01/12 10:55:30;;;;;;;6.72;1.25;;;12.50;99.90;;;;;;5053650;28;20044;-55
2023/01/12 10:57:56;;;;;;;6.20;1.35;;;12.50;99.90;;;;;;5053558;28;20052;-51
2023/01/12 11:00:23;;;;;;;6.75;1.65;;;12.50;99.90;;;;;;5053128;28;20094;-51
2023/01/12 11:02:51;;;;;;;3.72;1.15;;;12.40;99.90;;;;;;5053218;28;20064;-53
2023/01/12 11:05:18;;;;;;;4.43;1.08;;;12.40;99.90;;;;;;5053023;28;20037;-54
2023/01/12 11:07:45;;;;;;;4.28;1.10;;;12.40;99.90;;;;;;5053351;28;20423;-48
2023/01/12 11:10:12;;;;;;;5.85;1.95;;;12.40;99.90;;;;;;5053273;28;20527;-52
2023/01/12 11:12:44;;;;;;;3.97;1.10;;;12.40;99.90;;;;;;5053181;28;20072;-52
2023/01/12 11:15:11;;;;;;;5.15;1.10;;;12.40;99.90;;;;;;5053180;28;20044;-54
2023/01/12 11:17:59;;;;;;;4.22;1.10;;;12.40;99.90;;;;;;5053299;28;20044;-55
2023/01/12 11:20:25;;;;;;;3.88;1.38;;;12.40;99.90;;;;;;5053365;28;20124;-53
2023/01/12 11:22:52;;;;;;;4.18;1.27;;;12.40;99.90;;;;;;5053382;28;20095;-54
2023/01/12 11:25:20;;;;;;;4.53;1.00;;;12.40;99.90;;;;;;5051961;28;20480;-54
2023/01/12 11:27:46;;;;;;;4.97;1.13;;;12.30;99.90;;;;;;5054295;28;20045;-56
2023/01/12 11:30:14;;;;;;;5.80;1.58;;;12.30;99.90;;;;;;5056822;28;20052;-56
2023/01/12 11:32:41;;;;;;;5.90;1.10;;;12.30;99.90;;;;;;5056832;28;20484;-53
2023/01/12 11:35:08;;;;;;;5.78;1.10;;;12.30;99.90;;;;;;5056306;28;20041;-58
2023/01/12 11:37:34;;;;;;;4.82;1.13;;;12.40;99.90;;;;;;5056470;28;20052;-56
2023/01/12 11:40:01;;;;;;;4.95;1.40;;;12.40;99.90;;;;;;5057156;28;20041;-54
2023/01/12 11:45:13;;;;;;;6.50;1.73;;;12.40;99.90;;;;;;5056702;28;20050;-55
2023/01/12 11:47:40;;;;;;;5.72;1.25;;;12.40;99.90;;;;;;5056615;28;20075;-54
2023/01/12 11:50:07;;;;;;;4.68;1.40;;;12.40;99.90;;;;;;5056414;28;20076;-52
2023/01/12 11:52:34;;;;;;;4.95;1.15;;;12.40;99.90;;;;;;5056492;28;20048;-51
2023/01/12 11:55:01;;;;;;;5.00;1.20;;;12.40;99.90;;;;;;5056590;28;20419;-53
2023/01/12 11:57:27;;;;;;;6.03;1.40;;;12.40;99.90;;;;;;5056241;28;20503;-54
2023/01/12 11:59:54;;;;;;;5.75;1.40;;;12.50;99.90;;;;;;5055941;28;20049;-56
2023/01/12 12:02:21;;;;;;;8.27;2.10;;;12.50;99.90;;;;;;5055978;28;20045;-56
2023/01/12 12:04:48;;;;;;;4.65;1.40;;;12.50;99.90;;;;;;5056213;28;20435;-56
2023/01/12 12:07:15;;;;;;;5.22;1.58;;;12.50;99.90;;;;;;5055944;28;20392;-55
2023/01/12 12:09:41;;;;;;;4.82;1.55;;;12.50;99.90;;;;;;5055873;28;20472;-57
2023/01/12 12:12:08;;;;;;;6.63;1.30;;;12.60;99.90;;;;;;5055725;28;20123;-55
2023/01/12 12:14:35;;;;;;;8.23;1.48;;;12.60;99.90;;;;;;5055775;28;20476;-53
2023/01/12 12:17:02;;;;;;;5.32;1.35;;;12.70;99.90;;;;;;5054383;28;20533;-50
2023/01/12 12:19:29;;;;;;;6.18;1.30;;;12.60;99.90;;;;;;5055756;28;20384;-53
2023/01/12 12:21:55;;;;;;;7.75;1.90;;;12.60;99.90;;;;;;5055980;28;20459;-48
2023/01/12 12:24:22;;;;;;;5.00;1.70;;;12.50;99.90;;;;;;5055715;28;20045;-52
2023/01/12 12:26:50;;;;;;;6.82;1.23;;;12.60;99.90;;;;;;5054175;28;20080;-54
2023/01/12 12:29:16;;;;;;;5.40;1.50;;;12.60;99.90;;;;;;5055851;28;20041;-50
2023/01/12 12:31:43;;;;;;;5.57;1.15;;;12.50;99.90;;;;;;5054543;28;20041;-53
2023/01/12 12:34:10;;;;;;;6.40;1.55;;;12.50;99.90;;;;;;5055545;28;20092;-54
2023/01/12 12:36:37;;;;;;;5.30;1.30;;;12.50;99.90;;;;;;5055498;28;20083;-53
2023/01/12 12:39:03;;;;;;;5.63;1.23;;;12.50;99.90;;;;;;5054833;28;20114;-52
2023/01/12 12:47:01;;;;;;;6.50;1.17;;;12.50;99.90;;;;;;5054897;28;20041;-49
2023/01/12 12:49:27;;;;;;;4.18;1.00;;;12.50;99.90;;;;;;5055151;28;20091;-51
2023/01/12 12:51:54;;;;;;;7.35;1.48;;;12.50;99.90;;;;;;5055140;28;20068;-52
2023/01/12 12:54:21;;;;;;;4.60;1.10;;;12.50;99.90;;;;;;5055491;28;20041;-58
2023/01/12 12:56:48;;;;;;;6.13;2.05;;;12.50;99.90;;;;;;5054631;28;20041;-48
2023/01/12 12:59:14;;;;;;;8.02;1.40;;;12.50;99.90;;;;;;5054572;28;20044;-51
2023/01/12 13:01:42;;;;;;;4.25;1.40;;;12.50;99.90;;;;;;5054899;28;20071;-51
2023/01/12 13:04:09;;;;;;;3.90;1.05;;;12.50;99.90;;;;;;5054664;28;20037;-50
2023/01/12 13:06:36;;;;;;;3.83;1.23;;;12.50;99.90;;;;;;5054591;28;20041;-48
2023/01/12 13:09:04;;;;;;;7.93;1.52;;;12.50;99.90;;;;;;5054375;28;20052;-53
2023/01/12 13:11:31;;;;;;;7.78;1.95;;;12.50;99.90;;;;;;5054947;28;20079;-49
2023/01/12 13:13:57;;;;;;;5.20;1.20;;;12.50;99.90;;;;;;5055127;28;20045;-57
2023/01/12 13:16:24;;;;;;;6.60;1.42;;;12.50;99.90;;;;;;5054231;28;20051;-50
2023/01/12 13:18:51;;;;;;;4.32;1.17;;;12.50;99.90;;;;;;5054629;28;20464;-57
2023/01/12 13:21:18;;;;;;;4.63;1.27;;;12.50;99.90;;;;;;5054951;28;20060;-52